地図

経路データ

SID SEASON NUMBER BASIN SUBBASIN NAME ISO_TIME NATURE LAT LON WMO_WIND WMO_PRES WMO_AGENCY TRACK_TYPE DIST2LAND LANDFALL IFLAG USA_AGENCY USA_ATCF_ID USA_LAT USA_LON USA_RECORD USA_STATUS USA_WIND USA_PRES USA_SSHS USA_R34_NE USA_R34_SE USA_R34_SW USA_R34_NW USA_R50_NE USA_R50_SE USA_R50_SW USA_R50_NW USA_R64_NE USA_R64_SE USA_R64_SW USA_R64_NW USA_POCI USA_ROCI USA_RMW USA_EYE TOKYO_LAT TOKYO_LON TOKYO_GRADE TOKYO_WIND TOKYO_PRES TOKYO_R50_DIR TOKYO_R50_LONG TOKYO_R50_SHORT TOKYO_R30_DIR TOKYO_R30_LONG TOKYO_R30_SHORT TOKYO_LAND CMA_LAT CMA_LON CMA_CAT CMA_WIND CMA_PRES HKO_LAT HKO_LON HKO_CAT HKO_WIND HKO_PRES NEWDELHI_LAT NEWDELHI_LON NEWDELHI_GRADE NEWDELHI_WIND NEWDELHI_PRES NEWDELHI_CI NEWDELHI_DP NEWDELHI_POCI REUNION_LAT REUNION_LON REUNION_TYPE REUNION_WIND REUNION_PRES REUNION_TNUM REUNION_CI REUNION_RMW REUNION_R34_NE REUNION_R34_SE REUNION_R34_SW REUNION_R34_NW REUNION_R50_NE REUNION_R50_SE REUNION_R50_SW REUNION_R50_NW REUNION_R64_NE REUNION_R64_SE REUNION_R64_SW REUNION_R64_NW BOM_LAT BOM_LON BOM_TYPE BOM_WIND BOM_PRES BOM_TNUM BOM_CI BOM_RMW BOM_R34_NE BOM_R34_SE BOM_R34_SW BOM_R34_NW BOM_R50_NE BOM_R50_SE BOM_R50_SW BOM_R50_NW BOM_R64_NE BOM_R64_SE BOM_R64_SW BOM_R64_NW BOM_ROCI BOM_POCI BOM_EYE BOM_POS_METHOD BOM_PRES_METHOD NADI_LAT NADI_LON NADI_CAT NADI_WIND NADI_PRES WELLINGTON_LAT WELLINGTON_LON WELLINGTON_WIND WELLINGTON_PRES DS824_LAT DS824_LON DS824_STAGE DS824_WIND DS824_PRES TD9636_LAT TD9636_LON TD9636_STAGE TD9636_WIND TD9636_PRES TD9635_LAT TD9635_LON TD9635_WIND TD9635_PRES TD9635_ROCI NEUMANN_LAT NEUMANN_LON NEUMANN_CLASS NEUMANN_WIND NEUMANN_PRES MLC_LAT MLC_LON MLC_CLASS MLC_WIND MLC_PRES USA_GUST BOM_GUST BOM_GUST_PER REUNION_GUST REUNION_GUST_PER USA_SEAHGT USA_SEARAD_NE USA_SEARAD_SE USA_SEARAD_SW USA_SEARAD_NW STORM_SPEED STORM_DIR
1853251N37307 1853 10 NA NA NOT_NAMED 1853-09-08 00:00:00 TS 37.0000 -53.0000 100 hurdat_atl main 1067 1016 O_____________ hurdat_atl AL041853 37.0000 -53.0000 HU 100 3 19 58
1853251N37307 1853 10 NA NA NOT_NAMED 1853-09-08 03:00:00 TS 37.5019 -51.9978 main 1016 971 P_____________ AL041853 37.5019 -51.9978 HU 100 3 19 58
1853251N37307 1853 10 NA NA NOT_NAMED 1853-09-08 06:00:00 TS 38.0000 -51.0000 100 hurdat_atl main 973 935 O_____________ hurdat_atl AL041853 38.0000 -51.0000 HU 100 3 19 57
1853251N37307 1853 10 NA NA NOT_NAMED 1853-09-08 09:00:00 TS 38.4988 -50.0133 main 937 908 P_____________ AL041853 38.4988 -50.0133 HU 100 3 19 57
1853251N37307 1853 10 NA NA NOT_NAMED 1853-09-08 12:00:00 TS 39.0000 -49.0000 100 hurdat_atl main 911 896 O_____________ hurdat_atl AL041853 39.0000 -49.0000 HU 100 3 19 59
1853251N37307 1853 10 NA NA NOT_NAMED 1853-09-08 15:00:00 TS 39.4755 -47.9563 main 894 891 P_____________ AL041853 39.4755 -47.9563 HU 100 3 20 60
1853251N37307 1853 10 NA NA NOT_NAMED 1853-09-08 18:00:00 TS 40.0000 -46.8000 100 hurdat_atl main 896 891 O_____________ hurdat_atl AL041853 40.0000 -46.8000 HU 100 3 23 59
1853251N37307 1853 10 NA NA NOT_NAMED 1853-09-08 21:00:00 TS 40.6357 -45.4233 main 913 910 P_____________ AL041853 40.6357 -45.4233 HU 100 3 25 59
1853251N37307 1853 10 NA NA NOT_NAMED 1853-09-09 00:00:00 TS 41.3000 -44.0000 100 hurdat_atl main 939 939 O_____________ hurdat_atl AL041853 41.3000 -44.0000 HU 100 3 24 58
1853251N37307 1853 10 NA NA NOT_NAMED 1853-09-09 03:00:00 TS 41.9285 -42.7036 main 979 979 P_____________ AL041853 41.9285 -42.7036 HU 100 3 22 57
1853251N37307 1853 10 NA NA NOT_NAMED 1853-09-09 06:00:00 TS 42.5000 -41.5000 100 hurdat_atl main 1023 1023 O_____________ hurdat_atl AL041853 42.5000 -41.5000 HU 100 3 20 59
1853251N37307 1853 10 NA NA NOT_NAMED 1853-09-09 09:00:00 TS 42.9559 -40.3661 main 1072 1072 P_____________ AL041853 42.9559 -40.3661 HU 100 3 18 61
1853251N37307 1853 10 NA NA NOT_NAMED 1853-09-09 12:00:00 TS 43.4000 -39.3000 100 hurdat_atl main 1127 1127 O_____________ hurdat_atl AL041853 43.4000 -39.3000 HU 100 3 18 57
1853251N37307 1853 10 NA NA NOT_NAMED 1853-09-09 15:00:00 TS 43.9405 -38.2707 main 1174 1174 P_____________ AL041853 43.9405 -38.2707 HU 100 3 19 54
1853251N37307 1853 10 NA NA NOT_NAMED 1853-09-09 18:00:00 TS 44.5000 -37.2000 100 hurdat_atl main 1228 1228 O_____________ hurdat_atl AL041853 44.5000 -37.2000 HU 100 3 20 57
1853251N37307 1853 10 NA NA NOT_NAMED 1853-09-09 21:00:00 TS 45.0223 -35.9718 main 1298 1298 P_____________ AL041853 45.0223 -35.9718 HU 100 3 20 60
1853251N37307 1853 10 NA NA NOT_NAMED 1853-09-10 00:00:00 TS 45.5000 -34.7000 100 hurdat_atl main 1379 1379 O_____________ hurdat_atl AL041853 45.5000 -34.7000 HU 100 3 20 63
1853251N37307 1853 10 NA NA NOT_NAMED 1853-09-10 03:00:00 TS 45.9212 -33.4828 main 1457 1457 P_____________ AL041853 45.9212 -33.4828 HU 100 3 18 64
1853251N37307 1853 10 NA NA NOT_NAMED 1853-09-10 06:00:00 TS 46.3000 -32.3000 100 hurdat_atl main 1537 1537 O_____________ hurdat_atl AL041853 46.3000 -32.3000 HU 100 3 18 66
1853251N37307 1853 10 NA NA NOT_NAMED 1853-09-10 09:00:00 TS 46.6332 -31.1535 main 1604 1509 P_____________ AL041853 46.6332 -31.1535 HU 95 2 17 66
1853251N37307 1853 10 NA NA NOT_NAMED 1853-09-10 12:00:00 TS 47.0000 -30.0000 90 hurdat_atl main 1503 1402 O_____________ hurdat_atl AL041853 47.0000 -30.0000 HU 90 2 18 63
1853251N37307 1853 10 NA NA NOT_NAMED 1853-09-10 15:00:00 TS 47.4707 -28.7794 main 1397 1292 P_____________ AL041853 47.4707 -28.7794 HU 90 2 20 59
1853251N37307 1853 10 NA NA NOT_NAMED 1853-09-10 18:00:00 TS 48.0000 -27.5000 90 hurdat_atl main 1286 O_____________ hurdat_atl AL041853 48.0000 -27.5000 HU 90 2 20 58

IBTrACS Databaseについて

本データベースは、米国NOAAが公開する1842年以降の世界の熱帯低気圧のベストトラックデータアーカイブInternational Best Track Archive for Climate Stewardship (IBTrACS)を、ウェブで閲覧しやすい形式に変換したものです。

最終更新日:2021-10-19